Time;durP1;ratioP1;P1;durP2;ratioP2;P2;SDS_P1;SDS_P2;PMS_P1;PMS_P2;Temp;Humidity;BMP_temperature;BMP_pressure;BME280_temperature;BME280_humidity;BME280_pressure;Samples;Min_cycle;Max_cycle;Signal;HPM_P1;HPM_P2
2022/09/27 04:06:49;;;;;;;4.22;0.50;;;9.60;99.90;;;;;;4989922;28;20050;-85
2022/09/27 04:13:20;;;;;;;1.65;0.20;;;9.60;99.90;;;;;;4988223;28;20033;-87
2022/09/27 04:15:51;;;;;;;3.38;0.38;;;9.60;99.90;;;;;;4984752;28;20093;-88
2022/09/27 04:18:23;;;;;;;2.08;0.20;;;10.30;99.90;;;;;;4984293;28;20501;-88
2022/09/27 04:20:48;;;;;;;6.63;0.30;;;10.30;99.90;;;;;;4975499;28;20046;-88
2022/09/27 04:23:14;;;;;;;4.25;0.20;;;9.60;99.90;;;;;;4991304;28;20062;-88
2022/09/27 04:25:40;;;;;;;6.47;0.30;;;9.50;99.90;;;;;;5002020;28;20045;-86
2022/09/27 04:28:05;;;;;;;1.92;0.17;;;9.50;99.90;;;;;;4984861;28;20038;-87
2022/09/27 04:30:31;;;;;;;5.07;0.30;;;9.60;99.90;;;;;;4969712;28;20404;-86
2022/09/27 04:44:42;;;;;;;3.95;0.40;;;9.70;99.90;;;;;;4932325;29;20062;-90
2022/09/27 05:53:26;;;;;;;3.90;0.10;;;8.70;99.90;;;;;;5006709;28;20662;-84
2022/09/27 06:33:39;;;;;;;3.58;0.63;;;9.40;99.90;;;;;;4848929;29;20058;-84
2022/09/27 06:37:24;;;;;;;6.53;0.65;;;9.40;99.90;;;;;;4839766;29;20048;-84
2022/09/27 06:48:38;;;;;;;2.58;0.20;;;9.60;99.90;;;;;;4760698;30;20066;-84
2022/09/27 07:02:12;;;;;;;8.80;0.80;;;9.90;99.90;;;;;;4770209;29;20495;-85
2022/09/27 07:05:19;;;;;;;6.05;0.43;;;9.60;99.90;;;;;;4756876;30;20073;-84
2022/09/27 07:08:51;;;;;;;3.40;0.30;;;9.60;99.90;;;;;;4811482;29;20506;-85
2022/09/27 07:19:17;;;;;;;2.92;0.43;;;9.70;99.90;;;;;;4894943;29;20040;-84
2022/09/27 07:21:44;;;;;;;5.32;0.50;;;9.70;99.90;;;;;;4872042;29;20071;-85
2022/09/27 07:24:37;;;;;;;3.03;0.30;;;9.80;99.90;;;;;;4903419;29;20053;-85
2022/09/27 07:27:03;;;;;;;2.83;0.30;;;9.90;99.90;;;;;;4876377;29;20051;-83
2022/09/27 07:29:30;;;;;;;2.70;0.38;;;9.90;99.90;;;;;;4912569;28;20044;-87
2022/09/27 07:31:56;;;;;;;5.22;0.47;;;9.90;99.90;;;;;;4982414;28;20824;-86
2022/09/27 07:34:21;;;;;;;3.70;0.30;;;10.10;99.90;;;;;;4986333;28;20047;-86
2022/09/27 07:36:47;;;;;;;2.85;0.40;;;10.20;99.90;;;;;;4972230;28;21021;-85
2022/09/27 07:39:13;;;;;;;7.60;0.47;;;10.30;99.90;;;;;;4985900;28;20486;-86
2022/09/27 07:41:39;;;;;;;2.58;0.70;;;10.50;99.90;;;;;;4968894;28;20118;-87
2022/09/27 07:44:05;;;;;;;2.08;0.35;;;10.90;99.90;;;;;;4987617;28;20056;-85
2022/09/27 07:46:30;;;;;;;4.47;0.30;;;10.90;99.90;;;;;;4985399;28;20549;-85
2022/09/27 07:48:56;;;;;;;5.75;0.60;;;10.90;99.90;;;;;;4988695;28;20133;-83
2022/09/27 07:51:22;;;;;;;2.42;0.30;;;11.00;99.90;;;;;;4983426;28;20034;-86
2022/09/27 07:53:47;;;;;;;3.97;0.47;;;11.20;99.90;;;;;;4987666;28;20078;-86
2022/09/27 07:56:13;;;;;;;3.22;0.20;;;11.30;99.90;;;;;;4968103;28;20077;-86
2022/09/27 07:58:39;;;;;;;3.00;0.20;;;11.40;99.90;;;;;;4986961;28;20042;-86
2022/09/27 08:01:04;;;;;;;1.27;0.17;;;11.50;99.90;;;;;;4980081;28;20046;-86
2022/09/27 08:03:30;;;;;;;6.97;0.90;;;11.70;99.90;;;;;;4982294;28;20046;-87
2022/09/27 08:05:56;;;;;;;2.47;0.20;;;12.40;99.90;;;;;;4987470;28;20041;-86
2022/09/27 08:08:21;;;;;;;4.93;0.35;;;12.10;99.90;;;;;;4983353;28;20113;-87
2022/09/27 08:10:47;;;;;;;1.88;0.20;;;12.20;99.90;;;;;;4985484;28;20398;-86
2022/09/27 08:13:18;;;;;;;2.45;0.30;;;12.40;99.90;;;;;;4983322;28;20042;-86
2022/09/27 08:15:44;;;;;;;4.63;0.40;;;12.40;99.90;;;;;;4969751;28;20688;-86
2022/09/27 08:18:10;;;;;;;3.22;0.40;;;12.50;99.90;;;;;;4988114;28;20047;-87
2022/09/27 08:20:36;;;;;;;6.68;1.55;;;12.50;99.90;;;;;;4966712;28;20054;-86
2022/09/27 08:23:03;;;;;;;2.35;0.50;;;12.50;99.90;;;;;;4985072;28;20049;-86
2022/09/27 08:25:29;;;;;;;3.15;0.30;;;12.50;99.90;;;;;;4988790;28;20049;-86
2022/09/27 08:28:00;;;;;;;0.63;0.15;;;12.60;99.90;;;;;;4971649;28;20050;-86
2022/09/27 08:30:26;;;;;;;2.47;0.20;;;12.60;99.90;;;;;;4985171;28;20498;-87
2022/09/27 08:33:01;;;;;;;2.47;0.47;;;13.30;99.90;;;;;;4971429;28;20517;-88
2022/09/27 08:35:28;;;;;;;6.78;0.10;;;12.70;99.90;;;;;;4994154;28;20046;-88
2022/09/27 08:37:59;;;;;;;3.05;0.20;;;12.80;99.90;;;;;;4987877;28;20046;-88
2022/09/27 08:40:36;;;;;;;2.80;0.10;;;12.90;99.90;;;;;;4988405;28;20096;-88
2022/09/27 08:43:09;;;;;;;3.53;0.13;;;13.20;99.90;;;;;;4983708;28;20165;-89
2022/09/27 08:45:44;;;;;;;5.28;0.57;;;13.20;99.90;;;;;;4987284;28;20039;-89
2022/09/27 08:48:10;;;;;;;5.28;0.40;;;13.40;99.90;;;;;;4966093;28;20093;-88
2022/09/27 08:50:44;;;;;;;2.78;0.28;;;13.60;99.90;;;;;;4970440;28;20043;-87
2022/09/27 08:53:31;;;;;;;5.18;0.77;;;13.80;99.90;;;;;;4984976;28;20045;-88
2022/09/27 08:55:58;;;;;;;5.15;0.60;;;14.00;99.90;;;;;;4984886;28;20066;-88
2022/09/27 08:58:27;;;;;;;3.45;0.30;;;13.90;99.90;;;;;;4984872;28;20403;-88
2022/09/27 09:00:56;;;;;;;2.28;0.20;;;13.80;99.90;;;;;;4963242;28;20092;-88
2022/09/27 09:03:25;;;;;;;2.58;0.30;;;14.00;99.90;;;;;;4989564;28;20031;-88
2022/09/27 09:06:22;;;;;;;1.58;0.30;;;13.60;99.90;;;;;;4984301;28;20073;-88
2022/09/27 09:09:06;;;;;;;1.80;0.28;;;13.50;99.90;;;;;;4985844;28;20549;-87
2022/09/27 09:14:32;;;;;;;1.23;0.15;;;13.60;99.90;;;;;;4986742;28;20048;-88
2022/09/27 09:17:38;;;;;;;3.55;0.10;;;13.60;99.90;;;;;;4972666;28;20498;-88
2022/09/27 09:20:46;;;;;;;3.33;0.20;;;13.60;99.90;;;;;;4972742;28;20046;-88
2022/09/27 09:23:21;;;;;;;5.25;0.32;;;13.60;99.90;;;;;;4980308;28;20141;-89
2022/09/27 09:26:11;;;;;;;2.60;0.40;;;13.60;99.90;;;;;;4989761;28;20588;-88
2022/09/27 09:29:13;;;;;;;0.63;0.10;;;13.60;99.90;;;;;;4966388;28;20035;-88
2022/09/27 09:31:52;;;;;;;3.13;0.20;;;13.50;99.90;;;;;;4994805;28;20491;-88
2022/09/27 09:34:33;;;;;;;1.77;0.30;;;13.50;99.90;;;;;;4983576;28;20034;-88
2022/09/27 09:37:25;;;;;;;3.70;0.35;;;13.60;99.90;;;;;;4985560;28;20665;-87
2022/09/27 09:39:56;;;;;;;3.63;0.55;;;13.60;99.90;;;;;;4962093;28;20056;-88
2022/09/27 09:42:34;;;;;;;1.35;0.30;;;13.60;99.90;;;;;;4988394;28;20039;-87
2022/09/27 09:45:15;;;;;;;1.73;0.17;;;13.60;99.90;;;;;;4970764;28;20532;-88
2022/09/27 09:48:07;;;;;;;2.53;0.30;;;13.50;99.90;;;;;;4975295;28;20066;-88
2022/09/27 09:50:43;;;;;;;3.65;0.40;;;13.60;99.90;;;;;;4972083;28;20050;-87
2022/09/27 09:53:38;;;;;;;2.58;0.30;;;13.60;99.90;;;;;;4988174;28;20057;-87
2022/09/27 09:56:51;;;;;;;1.75;0.20;;;13.60;99.90;;;;;;4986395;28;20038;-87
2022/09/27 09:59:25;;;;;;;2.55;0.50;;;13.60;99.90;;;;;;4986946;28;20053;-89
2022/09/27 10:01:51;;;;;;;4.60;0.52;;;13.70;99.90;;;;;;4986519;28;20189;-86
2022/09/27 10:04:19;;;;;;;1.45;0.45;;;13.90;99.90;;;;;;4983587;28;20359;-87
2022/09/27 10:06:45;;;;;;;3.05;0.35;;;13.70;99.90;;;;;;4982111;28;20046;-86
2022/09/27 10:44:25;;;;;;;1.23;0.20;;;14.40;99.90;;;;;;5004482;28;20061;-87
2022/09/27 10:55:14;;;;;;;2.83;0.65;;;14.00;99.90;;;;;;5003567;28;20037;-84
2022/09/27 10:58:30;;;;;;;2.05;0.10;;;14.00;99.90;;;;;;4967246;28;20069;-85
2022/09/27 11:02:00;;;;;;;2.40;0.10;;;13.90;99.90;;;;;;4901330;29;20055;-86
2022/09/27 11:54:22;;;;;;;1.63;0.10;;;14.90;99.90;;;;;;4967890;28;20101;-86
2022/09/27 11:57:46;;;;;;;1.27;0.20;;;14.80;99.90;;;;;;4939956;28;20051;-85
2022/09/27 17:59:00;;;;;;;1.33;0.20;;;9.90;99.90;;;;;;4941235;28;20110;-83
2022/09/27 18:02:28;;;;;;;2.00;0.38;;;9.80;99.90;;;;;;4951076;28;20062;-83
2022/09/27 18:05:20;;;;;;;2.38;0.28;;;9.70;99.90;;;;;;4922971;28;20047;-82
2022/09/27 18:11:36;;;;;;;1.55;0.20;;;9.40;99.90;;;;;;4929295;29;20034;-81
2022/09/27 18:14:09;;;;;;;2.15;0.30;;;9.40;99.90;;;;;;4924896;29;20050;-81
2022/09/27 18:16:41;;;;;;;2.72;0.30;;;9.30;99.90;;;;;;4918578;29;20051;-82
2022/09/27 18:19:11;;;;;;;0.73;0.20;;;9.20;99.90;;;;;;4923368;29;20048;-82
2022/09/27 18:21:36;;;;;;;1.42;0.30;;;9.20;99.90;;;;;;4914708;29;20563;-83
2022/09/27 18:24:05;;;;;;;4.68;0.50;;;9.20;99.90;;;;;;4922210;29;20074;-82
2022/09/27 18:26:39;;;;;;;1.55;0.30;;;9.10;99.90;;;;;;4929023;29;20047;-82
2022/09/27 18:32:46;;;;;;;3.08;0.20;;;9.10;99.90;;;;;;4923862;29;20050;-80
2022/09/27 18:35:27;;;;;;;4.75;0.70;;;9.10;99.90;;;;;;4930801;29;20047;-86
2022/09/27 18:37:53;;;;;;;3.90;1.88;;;9.10;99.90;;;;;;4925286;29;20051;-83
2022/09/27 18:40:55;;;;;;;3.47;0.80;;;9.10;99.90;;;;;;4927013;29;20408;-84
2022/09/27 18:54:43;;;;;;;3.88;1.42;;;8.90;99.90;;;;;;4921984;28;20064;-84
2022/09/27 20:04:11;;;;;;;4.38;0.82;;;8.90;99.90;;;;;;4929412;28;20071;-87
2022/09/27 20:07:00;;;;;;;1.33;0.50;;;8.90;99.90;;;;;;4925991;29;20401;-83
2022/09/27 20:10:36;;;;;;;3.15;0.80;;;9.00;99.90;;;;;;4930719;29;20042;-83
2022/09/27 20:13:29;;;;;;;3.53;0.80;;;9.00;99.90;;;;;;4925513;29;20071;-82
2022/09/27 20:16:21;;;;;;;3.72;0.90;;;9.30;99.90;;;;;;4909257;29;20388;-83
2022/09/27 20:19:53;;;;;;;3.97;1.17;;;8.80;99.90;;;;;;4918262;29;20107;-82
2022/09/27 20:22:45;;;;;;;2.72;0.93;;;8.90;99.90;;;;;;4912642;29;20078;-82
2022/09/27 20:25:13;;;;;;;1.98;0.80;;;8.70;99.90;;;;;;4915361;29;20040;-82
2022/09/27 20:27:39;;;;;;;2.70;1.10;;;8.70;99.90;;;;;;4921373;29;20103;-82
2022/09/27 20:30:05;;;;;;;2.20;1.00;;;8.70;99.90;;;;;;4903951;29;20044;-82
2022/09/27 20:32:33;;;;;;;2.00;0.90;;;8.70;99.90;;;;;;4919504;29;20669;-82
2022/09/27 20:34:58;;;;;;;3.40;1.50;;;8.90;99.90;;;;;;4916280;29;20044;-82
2022/09/27 20:37:24;;;;;;;2.80;0.93;;;8.80;99.90;;;;;;4916773;29;20058;-82
2022/09/27 20:39:51;;;;;;;2.72;1.05;;;9.00;99.90;;;;;;4917043;29;20155;-82
2022/09/27 20:42:17;;;;;;;2.05;0.90;;;8.80;99.90;;;;;;4923176;29;20649;-82
2022/09/27 20:44:42;;;;;;;1.98;0.80;;;8.80;99.90;;;;;;4922867;29;20052;-82
2022/09/27 20:47:08;;;;;;;4.00;1.20;;;8.80;99.90;;;;;;4924424;29;20420;-82
2022/09/27 20:49:34;;;;;;;2.50;1.00;;;8.80;99.90;;;;;;4922610;29;20096;-82
2022/09/27 20:52:00;;;;;;;5.28;1.00;;;8.80;99.90;;;;;;4922190;29;20555;-82
2022/09/27 20:54:25;;;;;;;3.72;0.93;;;8.80;99.90;;;;;;4922261;29;20047;-82
2022/09/27 20:56:51;;;;;;;1.85;1.15;;;8.80;99.90;;;;;;4925852;29;20493;-82
2022/09/27 20:59:19;;;;;;;2.53;1.10;;;8.80;99.90;;;;;;4924448;29;20032;-82
2022/09/27 21:01:46;;;;;;;2.33;0.98;;;8.80;99.90;;;;;;4904035;29;20640;-82
2022/09/27 21:04:14;;;;;;;3.38;0.93;;;8.80;99.90;;;;;;4907674;29;20119;-82
2022/09/27 21:06:40;;;;;;;1.92;0.90;;;8.90;99.90;;;;;;4926227;29;20087;-82
2022/09/27 21:09:06;;;;;;;6.22;1.70;;;8.80;99.90;;;;;;4925393;29;20044;-82
2022/09/27 21:11:32;;;;;;;1.88;1.00;;;9.30;99.90;;;;;;4927511;29;20048;-82
2022/09/27 21:13:58;;;;;;;2.80;1.33;;;8.80;99.90;;;;;;4928235;29;20040;-82
2022/09/27 21:16:25;;;;;;;5.32;1.55;;;8.80;99.90;;;;;;4926192;29;20043;-83
2022/09/27 21:18:53;;;;;;;4.10;1.75;;;9.60;99.90;;;;;;4927315;29;20123;-82
2022/09/27 21:21:19;;;;;;;3.85;1.63;;;8.80;99.90;;;;;;4924167;29;20051;-82
2022/09/27 21:23:45;;;;;;;5.32;2.08;;;8.80;99.90;;;;;;4929146;29;20437;-82
2022/09/27 21:26:16;;;;;;;13.05;2.10;;;8.80;99.90;;;;;;4925944;29;20488;-83
2022/09/27 21:28:50;;;;;;;3.65;1.70;;;8.90;99.90;;;;;;4924029;29;20047;-82
2022/09/27 21:31:21;;;;;;;7.28;1.92;;;8.90;99.90;;;;;;4906300;29;20051;-82
2022/09/27 21:33:52;;;;;;;2.20;1.60;;;8.90;99.90;;;;;;4924297;29;20036;-82
2022/09/27 21:36:19;;;;;;;4.20;2.00;;;8.90;99.90;;;;;;4928344;29;20756;-82
2022/09/27 21:38:45;;;;;;;6.65;2.30;;;9.00;99.90;;;;;;4926790;29;20069;-82
2022/09/27 21:41:15;;;;;;;2.28;1.90;;;8.90;99.90;;;;;;4928143;29;20066;-82
2022/09/27 21:43:42;;;;;;;2.58;1.83;;;9.00;99.90;;;;;;4921464;29;20044;-82
2022/09/27 21:46:11;;;;;;;3.42;2.15;;;8.90;99.90;;;;;;4923334;29;20046;-82
2022/09/27 21:48:40;;;;;;;3.25;2.30;;;8.90;99.90;;;;;;4925353;29;20135;-82
2022/09/27 21:51:11;;;;;;;2.85;2.03;;;8.90;99.90;;;;;;4927386;29;20046;-82
2022/09/27 21:53:40;;;;;;;5.28;1.92;;;9.00;99.90;;;;;;4923905;29;20032;-82
2022/09/27 21:56:06;;;;;;;5.18;1.95;;;9.00;99.90;;;;;;4926325;29;20079;-82
2022/09/27 21:58:33;;;;;;;5.75;2.97;;;9.00;99.90;;;;;;4921267;29;20039;-82
2022/09/27 22:01:08;;;;;;;4.30;2.70;;;9.00;99.90;;;;;;4927581;29;20449;-82
2022/09/27 22:03:36;;;;;;;4.63;2.67;;;9.10;99.90;;;;;;4910106;29;20107;-82
2022/09/27 22:06:01;;;;;;;5.47;3.00;;;9.00;99.90;;;;;;4926709;29;20032;-82
2022/09/27 22:08:28;;;;;;;3.97;3.28;;;9.10;99.90;;;;;;4912288;29;20662;-82
2022/09/27 22:10:54;;;;;;;5.40;3.67;;;9.00;99.90;;;;;;4926453;29;20048;-82
2022/09/27 22:13:21;;;;;;;3.60;2.60;;;9.00;99.90;;;;;;4923789;29;20043;-82
